sensor_id;sensor_type;location;lat;lon;timestamp;P1;durP1;ratioP1;P2;durP2;ratioP2
4377;SDS011;2203;53.686;9.994;2022-12-11T00:00:14;15.60;;;7.30;;
4377;SDS011;2203;53.686;9.994;2022-12-11T00:02:39;15.53;;;7.10;;
4377;SDS011;2203;53.686;9.994;2022-12-11T00:05:05;12.63;;;6.90;;
4377;SDS011;2203;53.686;9.994;2022-12-11T00:07:31;12.50;;;6.13;;
4377;SDS011;2203;53.686;9.994;2022-12-11T00:09:56;14.00;;;6.73;;
4377;SDS011;2203;53.686;9.994;2022-12-11T00:12:22;14.40;;;7.07;;
4377;SDS011;2203;53.686;9.994;2022-12-11T00:14:47;12.57;;;7.07;;
4377;SDS011;2203;53.686;9.994;2022-12-11T00:17:12;13.17;;;7.10;;
4377;SDS011;2203;53.686;9.994;2022-12-11T00:19:38;12.00;;;6.70;;
4377;SDS011;2203;53.686;9.994;2022-12-11T00:22:03;12.80;;;5.70;;
4377;SDS011;2203;53.686;9.994;2022-12-11T00:24:28;18.00;;;7.60;;
4377;SDS011;2203;53.686;9.994;2022-12-11T00:26:54;12.07;;;5.80;;
4377;SDS011;2203;53.686;9.994;2022-12-11T00:29:19;12.13;;;6.80;;
4377;SDS011;2203;53.686;9.994;2022-12-11T00:31:45;13.53;;;7.00;;
4377;SDS011;2203;53.686;9.994;2022-12-11T00:34:10;12.80;;;6.47;;
4377;SDS011;2203;53.686;9.994;2022-12-11T00:36:36;10.30;;;6.67;;
4377;SDS011;2203;53.686;9.994;2022-12-11T00:39:02;14.90;;;7.47;;
4377;SDS011;2203;53.686;9.994;2022-12-11T00:41:28;11.60;;;6.43;;
4377;SDS011;2203;53.686;9.994;2022-12-11T00:43:53;12.40;;;6.43;;
4377;SDS011;2203;53.686;9.994;2022-12-11T00:46:18;11.00;;;6.30;;
4377;SDS011;2203;53.686;9.994;2022-12-11T00:48:44;13.90;;;7.30;;
4377;SDS011;2203;53.686;9.994;2022-12-11T00:51:10;11.77;;;6.40;;
4377;SDS011;2203;53.686;9.994;2022-12-11T00:53:36;17.27;;;7.93;;
4377;SDS011;2203;53.686;9.994;2022-12-11T00:56:09;14.60;;;7.37;;
4377;SDS011;2203;53.686;9.994;2022-12-11T00:58:36;13.83;;;7.53;;
4377;SDS011;2203;53.686;9.994;2022-12-11T01:01:07;13.03;;;7.20;;
4377;SDS011;2203;53.686;9.994;2022-12-11T01:03:35;15.27;;;6.97;;
4377;SDS011;2203;53.686;9.994;2022-12-11T01:06:00;15.33;;;7.67;;
4377;SDS011;2203;53.686;9.994;2022-12-11T01:08:26;14.33;;;7.27;;
4377;SDS011;2203;53.686;9.994;2022-12-11T01:10:59;13.17;;;7.00;;
4377;SDS011;2203;53.686;9.994;2022-12-11T01:13:25;13.80;;;7.00;;
4377;SDS011;2203;53.686;9.994;2022-12-11T01:15:50;14.87;;;8.13;;
4377;SDS011;2203;53.686;9.994;2022-12-11T01:18:16;15.63;;;6.43;;
4377;SDS011;2203;53.686;9.994;2022-12-11T01:20:41;10.77;;;6.27;;
4377;SDS011;2203;53.686;9.994;2022-12-11T01:23:07;12.10;;;6.73;;
4377;SDS011;2203;53.686;9.994;2022-12-11T01:25:34;12.97;;;7.17;;
4377;SDS011;2203;53.686;9.994;2022-12-11T01:27:59;15.97;;;8.40;;
4377;SDS011;2203;53.686;9.994;2022-12-11T01:30:25;12.77;;;6.97;;
4377;SDS011;2203;53.686;9.994;2022-12-11T01:32:50;14.37;;;7.90;;
4377;SDS011;2203;53.686;9.994;2022-12-11T01:35:16;11.37;;;7.20;;
4377;SDS011;2203;53.686;9.994;2022-12-11T01:37:43;14.43;;;7.80;;
4377;SDS011;2203;53.686;9.994;2022-12-11T01:40:08;14.37;;;7.67;;
4377;SDS011;2203;53.686;9.994;2022-12-11T01:42:38;14.90;;;8.27;;
4377;SDS011;2203;53.686;9.994;2022-12-11T01:48:15;14.37;;;7.63;;
4377;SDS011;2203;53.686;9.994;2022-12-11T01:50:45;13.37;;;7.23;;
4377;SDS011;2203;53.686;9.994;2022-12-11T01:53:15;14.53;;;7.20;;
4377;SDS011;2203;53.686;9.994;2022-12-11T01:55:42;12.30;;;6.70;;
4377;SDS011;2203;53.686;9.994;2022-12-11T01:58:08;14.70;;;6.80;;
4377;SDS011;2203;53.686;9.994;2022-12-11T02:00:34;11.47;;;7.30;;
4377;SDS011;2203;53.686;9.994;2022-12-11T02:02:59;13.57;;;7.87;;
4377;SDS011;2203;53.686;9.994;2022-12-11T02:05:25;12.93;;;6.80;;
4377;SDS011;2203;53.686;9.994;2022-12-11T02:07:53;11.77;;;6.43;;
4377;SDS011;2203;53.686;9.994;2022-12-11T02:10:22;12.17;;;6.40;;
4377;SDS011;2203;53.686;9.994;2022-12-11T02:15:24;11.43;;;6.53;;
4377;SDS011;2203;53.686;9.994;2022-12-11T02:20:51;13.00;;;7.13;;
4377;SDS011;2203;53.686;9.994;2022-12-11T02:30:56;14.70;;;7.50;;
4377;SDS011;2203;53.686;9.994;2022-12-11T02:33:29;12.73;;;7.00;;
4377;SDS011;2203;53.686;9.994;2022-12-11T02:36:01;12.00;;;7.10;;
4377;SDS011;2203;53.686;9.994;2022-12-11T02:38:29;15.73;;;8.20;;
4377;SDS011;2203;53.686;9.994;2022-12-11T02:40:56;13.53;;;7.20;;
4377;SDS011;2203;53.686;9.994;2022-12-11T02:43:23;18.70;;;8.00;;
4377;SDS011;2203;53.686;9.994;2022-12-11T02:45:49;14.30;;;7.90;;
4377;SDS011;2203;53.686;9.994;2022-12-11T02:48:16;13.07;;;6.87;;
4377;SDS011;2203;53.686;9.994;2022-12-11T02:50:43;15.13;;;7.63;;
4377;SDS011;2203;53.686;9.994;2022-12-11T02:53:11;13.90;;;7.03;;
4377;SDS011;2203;53.686;9.994;2022-12-11T02:55:37;14.67;;;7.50;;
4377;SDS011;2203;53.686;9.994;2022-12-11T02:58:06;15.60;;;8.33;;
4377;SDS011;2203;53.686;9.994;2022-12-11T03:00:37;13.57;;;6.63;;
4377;SDS011;2203;53.686;9.994;2022-12-11T03:03:02;14.13;;;6.80;;
4377;SDS011;2203;53.686;9.994;2022-12-11T03:05:28;14.20;;;7.17;;
4377;SDS011;2203;53.686;9.994;2022-12-11T03:07:54;13.40;;;7.37;;
4377;SDS011;2203;53.686;9.994;2022-12-11T03:10:20;12.80;;;6.70;;
4377;SDS011;2203;53.686;9.994;2022-12-11T03:12:46;16.93;;;5.93;;
4377;SDS011;2203;53.686;9.994;2022-12-11T03:15:14;14.40;;;7.40;;
4377;SDS011;2203;53.686;9.994;2022-12-11T03:21:05;11.40;;;6.20;;
4377;SDS011;2203;53.686;9.994;2022-12-11T03:23:36;12.47;;;6.53;;
4377;SDS011;2203;53.686;9.994;2022-12-11T03:26:09;14.67;;;7.30;;
4377;SDS011;2203;53.686;9.994;2022-12-11T03:33:52;13.13;;;6.63;;
4377;SDS011;2203;53.686;9.994;2022-12-11T03:36:21;16.93;;;7.00;;
4377;SDS011;2203;53.686;9.994;2022-12-11T03:38:53;10.63;;;6.43;;
4377;SDS011;2203;53.686;9.994;2022-12-11T03:41:22;12.93;;;6.80;;
4377;SDS011;2203;53.686;9.994;2022-12-11T03:43:50;11.97;;;6.47;;
4377;SDS011;2203;53.686;9.994;2022-12-11T03:46:18;14.97;;;7.50;;
4377;SDS011;2203;53.686;9.994;2022-12-11T03:48:45;15.90;;;6.80;;
4377;SDS011;2203;53.686;9.994;2022-12-11T03:51:11;19.40;;;7.17;;
4377;SDS011;2203;53.686;9.994;2022-12-11T03:53:37;16.13;;;8.57;;
4377;SDS011;2203;53.686;9.994;2022-12-11T03:56:03;11.13;;;6.73;;
4377;SDS011;2203;53.686;9.994;2022-12-11T03:58:30;16.27;;;8.60;;
4377;SDS011;2203;53.686;9.994;2022-12-11T04:00:56;11.30;;;6.73;;
4377;SDS011;2203;53.686;9.994;2022-12-11T04:03:21;15.20;;;8.10;;
4377;SDS011;2203;53.686;9.994;2022-12-11T04:05:48;18.73;;;7.90;;
4377;SDS011;2203;53.686;9.994;2022-12-11T04:08:15;16.63;;;7.90;;
4377;SDS011;2203;53.686;9.994;2022-12-11T04:10:42;13.97;;;7.70;;
4377;SDS011;2203;53.686;9.994;2022-12-11T04:13:07;15.20;;;8.30;;
4377;SDS011;2203;53.686;9.994;2022-12-11T04:15:34;13.73;;;8.03;;
4377;SDS011;2203;53.686;9.994;2022-12-11T04:17:59;15.57;;;7.60;;
4377;SDS011;2203;53.686;9.994;2022-12-11T04:20:43;16.00;;;8.63;;
4377;SDS011;2203;53.686;9.994;2022-12-11T04:23:27;15.27;;;7.73;;
4377;SDS011;2203;53.686;9.994;2022-12-11T04:26:13;18.90;;;8.00;;
4377;SDS011;2203;53.686;9.994;2022-12-11T04:28:41;17.00;;;8.80;;
4377;SDS011;2203;53.686;9.994;2022-12-11T04:31:11;15.20;;;8.10;;
4377;SDS011;2203;53.686;9.994;2022-12-11T04:33:38;14.73;;;7.80;;
4377;SDS011;2203;53.686;9.994;2022-12-11T04:36:03;17.73;;;9.23;;
4377;SDS011;2203;53.686;9.994;2022-12-11T04:38:29;22.00;;;9.40;;
4377;SDS011;2203;53.686;9.994;2022-12-11T04:40:58;20.50;;;8.73;;
4377;SDS011;2203;53.686;9.994;2022-12-11T04:43:24;16.00;;;8.67;;
4377;SDS011;2203;53.686;9.994;2022-12-11T04:45:49;18.93;;;10.07;;
4377;SDS011;2203;53.686;9.994;2022-12-11T04:48:14;19.53;;;9.70;;
4377;SDS011;2203;53.686;9.994;2022-12-11T04:50:40;18.57;;;9.83;;
4377;SDS011;2203;53.686;9.994;2022-12-11T04:53:05;18.13;;;10.27;;
4377;SDS011;2203;53.686;9.994;2022-12-11T04:55:30;27.03;;;10.40;;
4377;SDS011;2203;53.686;9.994;2022-12-11T04:57:56;16.30;;;8.30;;
4377;SDS011;2203;53.686;9.994;2022-12-11T05:00:21;17.10;;;9.37;;
4377;SDS011;2203;53.686;9.994;2022-12-11T05:02:47;19.93;;;9.57;;
4377;SDS011;2203;53.686;9.994;2022-12-11T05:05:12;19.10;;;9.77;;
4377;SDS011;2203;53.686;9.994;2022-12-11T05:07:38;21.03;;;9.97;;
4377;SDS011;2203;53.686;9.994;2022-12-11T05:10:04;17.37;;;9.40;;
4377;SDS011;2203;53.686;9.994;2022-12-11T05:12:30;18.23;;;9.27;;
4377;SDS011;2203;53.686;9.994;2022-12-11T05:14:56;20.07;;;9.97;;
4377;SDS011;2203;53.686;9.994;2022-12-11T05:17:21;20.93;;;10.60;;
4377;SDS011;2203;53.686;9.994;2022-12-11T05:19:47;18.43;;;9.00;;
4377;SDS011;2203;53.686;9.994;2022-12-11T05:22:13;18.73;;;10.13;;
4377;SDS011;2203;53.686;9.994;2022-12-11T05:24:39;19.13;;;9.47;;
4377;SDS011;2203;53.686;9.994;2022-12-11T05:27:05;17.50;;;9.37;;
4377;SDS011;2203;53.686;9.994;2022-12-11T05:29:30;17.63;;;8.93;;
4377;SDS011;2203;53.686;9.994;2022-12-11T05:31:56;15.47;;;8.73;;
4377;SDS011;2203;53.686;9.994;2022-12-11T05:34:21;19.37;;;10.23;;
4377;SDS011;2203;53.686;9.994;2022-12-11T05:36:47;18.50;;;9.00;;
4377;SDS011;2203;53.686;9.994;2022-12-11T05:39:12;17.83;;;8.70;;
4377;SDS011;2203;53.686;9.994;2022-12-11T05:41:37;22.43;;;9.87;;
4377;SDS011;2203;53.686;9.994;2022-12-11T05:44:03;20.97;;;10.23;;
4377;SDS011;2203;53.686;9.994;2022-12-11T05:46:29;18.40;;;9.40;;
4377;SDS011;2203;53.686;9.994;2022-12-11T05:48:56;20.07;;;9.03;;
4377;SDS011;2203;53.686;9.994;2022-12-11T05:51:22;20.97;;;10.00;;
4377;SDS011;2203;53.686;9.994;2022-12-11T05:53:49;20.40;;;9.87;;
4377;SDS011;2203;53.686;9.994;2022-12-11T05:56:17;19.63;;;10.20;;
4377;SDS011;2203;53.686;9.994;2022-12-11T05:58:44;19.23;;;9.73;;
4377;SDS011;2203;53.686;9.994;2022-12-11T06:01:11;21.07;;;9.10;;
4377;SDS011;2203;53.686;9.994;2022-12-11T06:03:39;18.50;;;9.67;;
4377;SDS011;2203;53.686;9.994;2022-12-11T06:06:04;22.37;;;10.50;;
4377;SDS011;2203;53.686;9.994;2022-12-11T06:08:30;21.80;;;10.83;;
4377;SDS011;2203;53.686;9.994;2022-12-11T06:10:56;23.17;;;10.47;;
4377;SDS011;2203;53.686;9.994;2022-12-11T06:13:22;20.07;;;10.30;;
4377;SDS011;2203;53.686;9.994;2022-12-11T06:15:47;24.63;;;11.27;;
4377;SDS011;2203;53.686;9.994;2022-12-11T06:18:13;21.20;;;9.53;;
4377;SDS011;2203;53.686;9.994;2022-12-11T06:20:38;19.17;;;10.47;;
4377;SDS011;2203;53.686;9.994;2022-12-11T06:23:04;23.53;;;10.70;;
4377;SDS011;2203;53.686;9.994;2022-12-11T06:25:29;24.03;;;11.50;;
4377;SDS011;2203;53.686;9.994;2022-12-11T06:27:55;21.67;;;11.20;;
4377;SDS011;2203;53.686;9.994;2022-12-11T06:30:21;22.43;;;11.97;;
4377;SDS011;2203;53.686;9.994;2022-12-11T06:32:46;25.00;;;11.60;;
4377;SDS011;2203;53.686;9.994;2022-12-11T06:35:12;24.30;;;11.50;;
4377;SDS011;2203;53.686;9.994;2022-12-11T06:37:37;21.27;;;11.10;;
4377;SDS011;2203;53.686;9.994;2022-12-11T06:40:04;22.70;;;11.57;;
4377;SDS011;2203;53.686;9.994;2022-12-11T06:42:31;22.33;;;11.33;;
4377;SDS011;2203;53.686;9.994;2022-12-11T06:44:57;32.43;;;12.90;;
4377;SDS011;2203;53.686;9.994;2022-12-11T06:47:24;25.50;;;12.43;;
4377;SDS011;2203;53.686;9.994;2022-12-11T06:49:51;25.23;;;11.33;;
4377;SDS011;2203;53.686;9.994;2022-12-11T06:52:16;23.97;;;12.20;;
4377;SDS011;2203;53.686;9.994;2022-12-11T06:54:42;20.70;;;11.20;;
4377;SDS011;2203;53.686;9.994;2022-12-11T06:57:07;24.73;;;11.77;;
4377;SDS011;2203;53.686;9.994;2022-12-11T06:59:33;24.60;;;12.40;;
4377;SDS011;2203;53.686;9.994;2022-12-11T07:01:58;27.23;;;12.00;;
4377;SDS011;2203;53.686;9.994;2022-12-11T07:04:24;21.27;;;11.50;;
4377;SDS011;2203;53.686;9.994;2022-12-11T07:06:51;20.67;;;10.87;;
4377;SDS011;2203;53.686;9.994;2022-12-11T07:09:17;27.20;;;11.57;;
4377;SDS011;2203;53.686;9.994;2022-12-11T07:11:42;24.63;;;12.50;;
4377;SDS011;2203;53.686;9.994;2022-12-11T07:14:08;22.07;;;10.87;;
4377;SDS011;2203;53.686;9.994;2022-12-11T07:16:33;23.67;;;11.33;;
4377;SDS011;2203;53.686;9.994;2022-12-11T07:18:59;25.53;;;12.90;;
4377;SDS011;2203;53.686;9.994;2022-12-11T07:21:24;27.67;;;11.40;;
4377;SDS011;2203;53.686;9.994;2022-12-11T07:23:50;23.50;;;12.50;;
4377;SDS011;2203;53.686;9.994;2022-12-11T07:26:16;22.43;;;11.50;;
4377;SDS011;2203;53.686;9.994;2022-12-11T07:28:43;30.87;;;12.87;;
4377;SDS011;2203;53.686;9.994;2022-12-11T07:31:13;28.23;;;13.60;;
4377;SDS011;2203;53.686;9.994;2022-12-11T07:33:40;26.33;;;13.03;;
4377;SDS011;2203;53.686;9.994;2022-12-11T07:36:07;28.57;;;12.60;;
4377;SDS011;2203;53.686;9.994;2022-12-11T07:38:33;30.10;;;13.67;;
4377;SDS011;2203;53.686;9.994;2022-12-11T07:40:59;27.93;;;13.73;;
4377;SDS011;2203;53.686;9.994;2022-12-11T07:43:28;30.30;;;13.63;;
4377;SDS011;2203;53.686;9.994;2022-12-11T07:45:53;27.10;;;13.33;;
4377;SDS011;2203;53.686;9.994;2022-12-11T07:48:19;27.13;;;13.27;;
4377;SDS011;2203;53.686;9.994;2022-12-11T07:50:44;34.60;;;14.47;;
4377;SDS011;2203;53.686;9.994;2022-12-11T07:53:10;26.57;;;12.57;;
4377;SDS011;2203;53.686;9.994;2022-12-11T07:55:35;33.80;;;13.80;;
4377;SDS011;2203;53.686;9.994;2022-12-11T07:58:01;27.70;;;12.53;;
4377;SDS011;2203;53.686;9.994;2022-12-11T08:00:26;28.00;;;14.20;;
4377;SDS011;2203;53.686;9.994;2022-12-11T08:02:51;30.63;;;14.00;;
4377;SDS011;2203;53.686;9.994;2022-12-11T08:05:17;27.83;;;14.03;;
4377;SDS011;2203;53.686;9.994;2022-12-11T08:07:42;27.47;;;13.50;;
4377;SDS011;2203;53.686;9.994;2022-12-11T08:10:08;30.50;;;14.00;;
4377;SDS011;2203;53.686;9.994;2022-12-11T08:12:33;27.87;;;14.00;;
4377;SDS011;2203;53.686;9.994;2022-12-11T08:14:59;31.10;;;13.07;;
4377;SDS011;2203;53.686;9.994;2022-12-11T08:17:24;39.80;;;18.10;;
4377;SDS011;2203;53.686;9.994;2022-12-11T08:19:49;33.33;;;15.40;;
4377;SDS011;2203;53.686;9.994;2022-12-11T08:22:15;30.77;;;14.33;;
4377;SDS011;2203;53.686;9.994;2022-12-11T08:24:40;31.37;;;14.17;;
4377;SDS011;2203;53.686;9.994;2022-12-11T08:27:06;27.97;;;14.40;;
4377;SDS011;2203;53.686;9.994;2022-12-11T08:29:31;30.53;;;15.10;;
4377;SDS011;2203;53.686;9.994;2022-12-11T08:31:56;27.90;;;13.23;;
4377;SDS011;2203;53.686;9.994;2022-12-11T08:34:22;32.20;;;14.30;;
4377;SDS011;2203;53.686;9.994;2022-12-11T08:36:47;28.50;;;13.77;;
4377;SDS011;2203;53.686;9.994;2022-12-11T08:39:13;31.10;;;14.63;;
4377;SDS011;2203;53.686;9.994;2022-12-11T08:41:38;31.00;;;15.20;;
4377;SDS011;2203;53.686;9.994;2022-12-11T08:44:04;26.63;;;13.73;;
4377;SDS011;2203;53.686;9.994;2022-12-11T08:46:30;29.50;;;13.90;;
4377;SDS011;2203;53.686;9.994;2022-12-11T08:48:56;31.70;;;14.97;;
4377;SDS011;2203;53.686;9.994;2022-12-11T08:51:23;27.27;;;13.17;;
4377;SDS011;2203;53.686;9.994;2022-12-11T08:53:50;33.40;;;13.60;;
4377;SDS011;2203;53.686;9.994;2022-12-11T08:56:18;29.80;;;15.17;;
4377;SDS011;2203;53.686;9.994;2022-12-11T08:58:44;28.67;;;14.20;;
4377;SDS011;2203;53.686;9.994;2022-12-11T09:01:28;29.83;;;14.33;;
4377;SDS011;2203;53.686;9.994;2022-12-11T09:03:54;31.50;;;13.40;;
4377;SDS011;2203;53.686;9.994;2022-12-11T09:06:21;28.93;;;13.63;;
4377;SDS011;2203;53.686;9.994;2022-12-11T09:08:48;33.53;;;14.60;;
4377;SDS011;2203;53.686;9.994;2022-12-11T09:11:19;33.30;;;15.20;;
4377;SDS011;2203;53.686;9.994;2022-12-11T09:13:47;30.03;;;14.03;;
4377;SDS011;2203;53.686;9.994;2022-12-11T09:16:14;29.70;;;14.00;;
4377;SDS011;2203;53.686;9.994;2022-12-11T09:18:43;28.40;;;13.67;;
4377;SDS011;2203;53.686;9.994;2022-12-11T09:21:10;31.57;;;14.60;;
4377;SDS011;2203;53.686;9.994;2022-12-11T09:23:39;37.87;;;16.37;;
4377;SDS011;2203;53.686;9.994;2022-12-11T09:26:06;34.77;;;15.50;;
4377;SDS011;2203;53.686;9.994;2022-12-11T09:28:35;31.60;;;15.30;;
4377;SDS011;2203;53.686;9.994;2022-12-11T09:31:00;31.97;;;15.60;;
4377;SDS011;2203;53.686;9.994;2022-12-11T09:33:26;27.80;;;14.13;;
4377;SDS011;2203;53.686;9.994;2022-12-11T09:36:00;32.90;;;15.93;;
4377;SDS011;2203;53.686;9.994;2022-12-11T09:38:26;23.93;;;12.47;;
4377;SDS011;2203;53.686;9.994;2022-12-11T09:40:52;33.10;;;14.23;;
4377;SDS011;2203;53.686;9.994;2022-12-11T09:43:37;28.40;;;15.57;;
4377;SDS011;2203;53.686;9.994;2022-12-11T09:46:12;31.80;;;15.27;;
4377;SDS011;2203;53.686;9.994;2022-12-11T09:48:39;30.60;;;14.90;;
4377;SDS011;2203;53.686;9.994;2022-12-11T09:51:31;32.37;;;15.10;;
4377;SDS011;2203;53.686;9.994;2022-12-11T09:54:18;39.70;;;16.03;;
4377;SDS011;2203;53.686;9.994;2022-12-11T10:05:14;28.90;;;14.20;;
4377;SDS011;2203;53.686;9.994;2022-12-11T10:15:49;26.47;;;13.40;;
4377;SDS011;2203;53.686;9.994;2022-12-11T10:18:18;30.10;;;13.20;;
4377;SDS011;2203;53.686;9.994;2022-12-11T10:20:47;27.20;;;12.70;;
4377;SDS011;2203;53.686;9.994;2022-12-11T10:23:15;31.50;;;12.00;;
4377;SDS011;2203;53.686;9.994;2022-12-11T10:25:53;26.50;;;13.23;;
4377;SDS011;2203;53.686;9.994;2022-12-11T10:28:25;24.47;;;12.10;;
4377;SDS011;2203;53.686;9.994;2022-12-11T10:33:21;25.47;;;12.40;;
4377;SDS011;2203;53.686;9.994;2022-12-11T10:35:49;26.57;;;12.13;;
4377;SDS011;2203;53.686;9.994;2022-12-11T10:38:25;32.40;;;12.93;;
4377;SDS011;2203;53.686;9.994;2022-12-11T10:43:39;22.57;;;11.47;;
4377;SDS011;2203;53.686;9.994;2022-12-11T10:46:12;26.00;;;11.50;;
4377;SDS011;2203;53.686;9.994;2022-12-11T10:48:55;24.43;;;12.77;;
4377;SDS011;2203;53.686;9.994;2022-12-11T10:51:43;25.00;;;12.90;;
4377;SDS011;2203;53.686;9.994;2022-12-11T10:57:06;23.20;;;11.10;;
4377;SDS011;2203;53.686;9.994;2022-12-11T10:59:35;25.87;;;11.93;;
4377;SDS011;2203;53.686;9.994;2022-12-11T11:02:03;21.83;;;11.53;;
4377;SDS011;2203;53.686;9.994;2022-12-11T11:04:30;20.97;;;11.27;;
4377;SDS011;2203;53.686;9.994;2022-12-11T11:07:01;26.00;;;12.40;;
4377;SDS011;2203;53.686;9.994;2022-12-11T11:09:47;28.17;;;12.03;;
4377;SDS011;2203;53.686;9.994;2022-12-11T11:12:18;30.30;;;13.83;;
4377;SDS011;2203;53.686;9.994;2022-12-11T11:14:58;24.50;;;11.97;;
4377;SDS011;2203;53.686;9.994;2022-12-11T11:17:31;26.40;;;12.70;;
4377;SDS011;2203;53.686;9.994;2022-12-11T11:20:03;25.67;;;12.20;;
4377;SDS011;2203;53.686;9.994;2022-12-11T11:22:31;27.00;;;13.07;;
4377;SDS011;2203;53.686;9.994;2022-12-11T11:24:57;25.87;;;12.43;;
4377;SDS011;2203;53.686;9.994;2022-12-11T11:30:05;24.63;;;12.30;;
4377;SDS011;2203;53.686;9.994;2022-12-11T11:32:38;22.47;;;11.47;;
4377;SDS011;2203;53.686;9.994;2022-12-11T11:35:15;22.83;;;11.87;;
4377;SDS011;2203;53.686;9.994;2022-12-11T11:37:51;26.20;;;12.33;;
4377;SDS011;2203;53.686;9.994;2022-12-11T11:40:27;32.23;;;12.83;;
4377;SDS011;2203;53.686;9.994;2022-12-11T11:43:05;26.77;;;12.37;;
4377;SDS011;2203;53.686;9.994;2022-12-11T11:45:38;26.83;;;12.70;;
4377;SDS011;2203;53.686;9.994;2022-12-11T11:57:00;20.53;;;10.60;;
4377;SDS011;2203;53.686;9.994;2022-12-11T11:59:33;27.63;;;12.90;;
4377;SDS011;2203;53.686;9.994;2022-12-11T12:02:08;26.27;;;12.37;;
4377;SDS011;2203;53.686;9.994;2022-12-11T12:04:38;25.63;;;11.97;;
4377;SDS011;2203;53.686;9.994;2022-12-11T12:10:19;21.57;;;11.10;;
4377;SDS011;2203;53.686;9.994;2022-12-11T12:12:58;26.77;;;12.13;;
4377;SDS011;2203;53.686;9.994;2022-12-11T12:15:47;23.77;;;11.77;;
4377;SDS011;2203;53.686;9.994;2022-12-11T12:26:08;23.83;;;11.30;;
4377;SDS011;2203;53.686;9.994;2022-12-11T12:34:38;26.37;;;11.90;;
4377;SDS011;2203;53.686;9.994;2022-12-11T12:42:51;31.87;;;12.50;;
4377;SDS011;2203;53.686;9.994;2022-12-11T12:45:36;22.43;;;11.47;;
4377;SDS011;2203;53.686;9.994;2022-12-11T12:48:09;32.77;;;11.30;;
4377;SDS011;2203;53.686;9.994;2022-12-11T12:50:39;25.87;;;12.47;;
4377;SDS011;2203;53.686;9.994;2022-12-11T12:53:08;26.07;;;10.73;;
4377;SDS011;2203;53.686;9.994;2022-12-11T12:55:40;23.60;;;10.97;;
4377;SDS011;2203;53.686;9.994;2022-12-11T12:58:06;26.10;;;12.40;;
4377;SDS011;2203;53.686;9.994;2022-12-11T13:00:33;29.10;;;11.13;;
4377;SDS011;2203;53.686;9.994;2022-12-11T13:03:18;28.60;;;11.50;;
4377;SDS011;2203;53.686;9.994;2022-12-11T13:05:56;24.30;;;11.67;;
4377;SDS011;2203;53.686;9.994;2022-12-11T13:08:24;25.40;;;11.87;;
4377;SDS011;2203;53.686;9.994;2022-12-11T13:10:58;26.77;;;11.67;;
4377;SDS011;2203;53.686;9.994;2022-12-11T13:13:35;28.47;;;12.20;;
4377;SDS011;2203;53.686;9.994;2022-12-11T13:18:41;28.53;;;13.73;;
4377;SDS011;2203;53.686;9.994;2022-12-11T13:24:14;33.93;;;12.40;;
4377;SDS011;2203;53.686;9.994;2022-12-11T13:26:39;24.33;;;12.30;;
4377;SDS011;2203;53.686;9.994;2022-12-11T13:29:25;24.93;;;10.67;;
4377;SDS011;2203;53.686;9.994;2022-12-11T13:34:34;25.00;;;11.37;;
4377;SDS011;2203;53.686;9.994;2022-12-11T13:37:02;30.13;;;12.23;;
4377;SDS011;2203;53.686;9.994;2022-12-11T13:39:29;25.50;;;13.40;;
4377;SDS011;2203;53.686;9.994;2022-12-11T13:41:56;25.83;;;12.30;;
4377;SDS011;2203;53.686;9.994;2022-12-11T13:44:28;24.70;;;12.30;;
4377;SDS011;2203;53.686;9.994;2022-12-11T13:46:57;26.23;;;12.03;;
4377;SDS011;2203;53.686;9.994;2022-12-11T13:49:25;23.53;;;11.37;;
4377;SDS011;2203;53.686;9.994;2022-12-11T13:51:54;26.63;;;12.40;;
4377;SDS011;2203;53.686;9.994;2022-12-11T13:54:22;23.70;;;12.40;;
4377;SDS011;2203;53.686;9.994;2022-12-11T13:57:13;25.63;;;11.50;;
4377;SDS011;2203;53.686;9.994;2022-12-11T13:59:41;26.60;;;12.13;;
4377;SDS011;2203;53.686;9.994;2022-12-11T14:02:16;27.53;;;13.03;;
4377;SDS011;2203;53.686;9.994;2022-12-11T14:04:45;27.27;;;12.70;;
4377;SDS011;2203;53.686;9.994;2022-12-11T14:07:11;26.60;;;12.50;;
4377;SDS011;2203;53.686;9.994;2022-12-11T14:09:43;28.43;;;12.53;;
4377;SDS011;2203;53.686;9.994;2022-12-11T14:12:16;28.13;;;11.90;;
4377;SDS011;2203;53.686;9.994;2022-12-11T14:14:51;26.47;;;12.70;;
4377;SDS011;2203;53.686;9.994;2022-12-11T14:17:26;25.83;;;12.83;;
4377;SDS011;2203;53.686;9.994;2022-12-11T14:19:53;27.37;;;12.53;;
4377;SDS011;2203;53.686;9.994;2022-12-11T14:22:25;27.87;;;13.00;;
4377;SDS011;2203;53.686;9.994;2022-12-11T14:24:53;26.10;;;11.40;;
4377;SDS011;2203;53.686;9.994;2022-12-11T14:27:20;28.27;;;12.87;;
4377;SDS011;2203;53.686;9.994;2022-12-11T14:29:46;24.23;;;12.10;;
4377;SDS011;2203;53.686;9.994;2022-12-11T14:32:15;30.23;;;13.17;;
4377;SDS011;2203;53.686;9.994;2022-12-11T14:35:03;31.30;;;12.90;;
4377;SDS011;2203;53.686;9.994;2022-12-11T14:37:30;21.33;;;10.93;;
4377;SDS011;2203;53.686;9.994;2022-12-11T14:40:03;24.67;;;11.20;;
4377;SDS011;2203;53.686;9.994;2022-12-11T14:42:36;22.90;;;11.60;;
4377;SDS011;2203;53.686;9.994;2022-12-11T14:45:22;24.50;;;12.50;;
4377;SDS011;2203;53.686;9.994;2022-12-11T14:47:58;29.00;;;12.23;;
4377;SDS011;2203;53.686;9.994;2022-12-11T14:50:25;22.97;;;9.03;;
4377;SDS011;2203;53.686;9.994;2022-12-11T14:52:57;33.33;;;14.00;;
4377;SDS011;2203;53.686;9.994;2022-12-11T14:55:28;31.27;;;14.20;;
4377;SDS011;2203;53.686;9.994;2022-12-11T14:57:56;25.90;;;12.17;;
4377;SDS011;2203;53.686;9.994;2022-12-11T15:00:28;28.30;;;12.63;;
4377;SDS011;2203;53.686;9.994;2022-12-11T15:02:59;29.60;;;12.43;;
4377;SDS011;2203;53.686;9.994;2022-12-11T15:05:26;27.43;;;12.30;;
4377;SDS011;2203;53.686;9.994;2022-12-11T15:07:53;25.83;;;12.60;;
4377;SDS011;2203;53.686;9.994;2022-12-11T15:10:23;30.63;;;13.33;;
4377;SDS011;2203;53.686;9.994;2022-12-11T15:12:50;25.97;;;12.77;;
4377;SDS011;2203;53.686;9.994;2022-12-11T15:15:15;24.10;;;12.57;;
4377;SDS011;2203;53.686;9.994;2022-12-11T15:17:41;30.30;;;14.43;;
4377;SDS011;2203;53.686;9.994;2022-12-11T15:20:08;25.80;;;13.03;;
4377;SDS011;2203;53.686;9.994;2022-12-11T15:22:40;34.87;;;14.70;;
4377;SDS011;2203;53.686;9.994;2022-12-11T15:25:15;33.67;;;14.83;;
4377;SDS011;2203;53.686;9.994;2022-12-11T15:27:48;33.60;;;14.33;;
4377;SDS011;2203;53.686;9.994;2022-12-11T15:33:00;29.97;;;14.07;;
4377;SDS011;2203;53.686;9.994;2022-12-11T15:35:34;31.23;;;15.70;;
4377;SDS011;2203;53.686;9.994;2022-12-11T15:38:00;29.23;;;14.47;;
4377;SDS011;2203;53.686;9.994;2022-12-11T15:40:26;38.53;;;17.20;;
4377;SDS011;2203;53.686;9.994;2022-12-11T15:42:52;52.17;;;22.10;;
4377;SDS011;2203;53.686;9.994;2022-12-11T15:45:25;41.90;;;19.77;;
4377;SDS011;2203;53.686;9.994;2022-12-11T15:47:54;61.63;;;22.07;;
4377;SDS011;2203;53.686;9.994;2022-12-11T15:50:25;38.67;;;17.53;;
4377;SDS011;2203;53.686;9.994;2022-12-11T15:52:52;47.93;;;19.80;;
4377;SDS011;2203;53.686;9.994;2022-12-11T15:55:18;47.03;;;19.67;;
4377;SDS011;2203;53.686;9.994;2022-12-11T15:57:45;43.93;;;17.80;;
4377;SDS011;2203;53.686;9.994;2022-12-11T16:00:15;41.10;;;18.13;;
4377;SDS011;2203;53.686;9.994;2022-12-11T16:02:42;50.43;;;20.23;;
4377;SDS011;2203;53.686;9.994;2022-12-11T16:05:08;40.90;;;18.27;;
4377;SDS011;2203;53.686;9.994;2022-12-11T16:07:34;40.80;;;18.13;;
4377;SDS011;2203;53.686;9.994;2022-12-11T16:09:59;39.93;;;18.47;;
4377;SDS011;2203;53.686;9.994;2022-12-11T16:12:24;35.97;;;16.23;;
4377;SDS011;2203;53.686;9.994;2022-12-11T16:14:50;37.03;;;17.00;;
4377;SDS011;2203;53.686;9.994;2022-12-11T16:17:15;44.87;;;18.90;;
4377;SDS011;2203;53.686;9.994;2022-12-11T16:19:41;33.63;;;14.30;;
4377;SDS011;2203;53.686;9.994;2022-12-11T16:22:08;36.43;;;15.83;;
4377;SDS011;2203;53.686;9.994;2022-12-11T16:24:34;37.63;;;16.00;;
4377;SDS011;2203;53.686;9.994;2022-12-11T16:27:00;39.63;;;18.20;;
4377;SDS011;2203;53.686;9.994;2022-12-11T16:29:25;44.70;;;17.60;;
4377;SDS011;2203;53.686;9.994;2022-12-11T16:31:51;32.73;;;15.17;;
4377;SDS011;2203;53.686;9.994;2022-12-11T16:34:16;35.27;;;15.77;;